sensor_id;sensor_type;location;lat;lon;timestamp;P1;durP1;ratioP1;P2;durP2;ratioP2
73107;SDS011;61559;50.476;15.588;2022-08-01T00:02:22;5.20;;;4.20;;
73107;SDS011;61559;50.476;15.588;2022-08-01T00:05:01;8.70;;;4.60;;
73107;SDS011;61559;50.476;15.588;2022-08-01T00:07:34;5.60;;;4.70;;
73107;SDS011;61559;50.476;15.588;2022-08-01T00:10:07;5.90;;;4.50;;
73107;SDS011;61559;50.476;15.588;2022-08-01T00:12:41;5.30;;;4.80;;
73107;SDS011;61559;50.476;15.588;2022-08-01T00:15:14;5.30;;;4.30;;
73107;SDS011;61559;50.476;15.588;2022-08-01T00:17:46;5.10;;;4.40;;
73107;SDS011;61559;50.476;15.588;2022-08-01T00:20:16;5.50;;;4.60;;
73107;SDS011;61559;50.476;15.588;2022-08-01T00:22:55;5.00;;;4.50;;
73107;SDS011;61559;50.476;15.588;2022-08-01T00:25:26;4.80;;;4.00;;
73107;SDS011;61559;50.476;15.588;2022-08-01T00:28:01;4.30;;;3.60;;
73107;SDS011;61559;50.476;15.588;2022-08-01T00:30:36;5.80;;;4.50;;
73107;SDS011;61559;50.476;15.588;2022-08-01T00:33:07;5.50;;;4.50;;
73107;SDS011;61559;50.476;15.588;2022-08-01T00:35:38;5.00;;;4.10;;
73107;SDS011;61559;50.476;15.588;2022-08-01T00:38:09;4.60;;;4.10;;
73107;SDS011;61559;50.476;15.588;2022-08-01T00:40:40;4.40;;;3.80;;
73107;SDS011;61559;50.476;15.588;2022-08-01T00:43:11;5.70;;;4.80;;
73107;SDS011;61559;50.476;15.588;2022-08-01T00:45:42;3.70;;;3.30;;
73107;SDS011;61559;50.476;15.588;2022-08-01T00:48:13;4.20;;;3.60;;
73107;SDS011;61559;50.476;15.588;2022-08-01T00:50:44;5.10;;;4.20;;
73107;SDS011;61559;50.476;15.588;2022-08-01T00:53:15;4.70;;;4.20;;
73107;SDS011;61559;50.476;15.588;2022-08-01T00:55:48;4.40;;;3.70;;
73107;SDS011;61559;50.476;15.588;2022-08-01T00:58:19;4.20;;;3.80;;
73107;SDS011;61559;50.476;15.588;2022-08-01T01:00:50;6.00;;;3.70;;
73107;SDS011;61559;50.476;15.588;2022-08-01T01:03:22;5.40;;;4.10;;
73107;SDS011;61559;50.476;15.588;2022-08-01T01:06:14;4.40;;;4.00;;
73107;SDS011;61559;50.476;15.588;2022-08-01T01:08:58;4.30;;;3.90;;
73107;SDS011;61559;50.476;15.588;2022-08-01T01:11:44;4.10;;;3.70;;
73107;SDS011;61559;50.476;15.588;2022-08-01T01:14:26;5.00;;;3.70;;
73107;SDS011;61559;50.476;15.588;2022-08-01T01:17:03;4.80;;;4.10;;
73107;SDS011;61559;50.476;15.588;2022-08-01T01:19:45;4.30;;;3.90;;
73107;SDS011;61559;50.476;15.588;2022-08-01T01:22:24;4.00;;;3.60;;
73107;SDS011;61559;50.476;15.588;2022-08-01T01:25:09;5.60;;;3.80;;
73107;SDS011;61559;50.476;15.588;2022-08-01T01:30:32;7.30;;;3.70;;
73107;SDS011;61559;50.476;15.588;2022-08-01T01:33:05;5.60;;;3.60;;
73107;SDS011;61559;50.476;15.588;2022-08-01T01:35:41;4.40;;;4.00;;
73107;SDS011;61559;50.476;15.588;2022-08-01T01:38:17;4.90;;;3.90;;
73107;SDS011;61559;50.476;15.588;2022-08-01T01:40:50;4.70;;;3.60;;
73107;SDS011;61559;50.476;15.588;2022-08-01T01:43:24;5.20;;;3.20;;
73107;SDS011;61559;50.476;15.588;2022-08-01T01:46:01;5.00;;;3.70;;
73107;SDS011;61559;50.476;15.588;2022-08-01T01:48:36;4.50;;;3.70;;
73107;SDS011;61559;50.476;15.588;2022-08-01T01:51:08;5.10;;;3.70;;
73107;SDS011;61559;50.476;15.588;2022-08-01T01:53:41;5.00;;;3.60;;
73107;SDS011;61559;50.476;15.588;2022-08-01T01:56:14;4.10;;;3.60;;
73107;SDS011;61559;50.476;15.588;2022-08-01T01:58:49;3.40;;;3.10;;
73107;SDS011;61559;50.476;15.588;2022-08-01T02:01:22;7.00;;;3.70;;
73107;SDS011;61559;50.476;15.588;2022-08-01T02:04:16;5.20;;;3.80;;
73107;SDS011;61559;50.476;15.588;2022-08-01T02:06:52;5.10;;;3.80;;
73107;SDS011;61559;50.476;15.588;2022-08-01T02:09:24;4.30;;;2.90;;
73107;SDS011;61559;50.476;15.588;2022-08-01T02:11:58;5.00;;;3.00;;
73107;SDS011;61559;50.476;15.588;2022-08-01T02:14:36;4.00;;;3.60;;
73107;SDS011;61559;50.476;15.588;2022-08-01T02:17:09;4.10;;;3.70;;
73107;SDS011;61559;50.476;15.588;2022-08-01T02:19:47;3.90;;;3.60;;
73107;SDS011;61559;50.476;15.588;2022-08-01T02:22:21;3.80;;;3.50;;
73107;SDS011;61559;50.476;15.588;2022-08-01T02:24:57;4.60;;;3.40;;
73107;SDS011;61559;50.476;15.588;2022-08-01T02:27:33;3.60;;;3.30;;
73107;SDS011;61559;50.476;15.588;2022-08-01T02:30:12;4.70;;;3.70;;
73107;SDS011;61559;50.476;15.588;2022-08-01T02:32:46;4.70;;;3.90;;
73107;SDS011;61559;50.476;15.588;2022-08-01T02:35:19;5.00;;;3.90;;
73107;SDS011;61559;50.476;15.588;2022-08-01T02:37:52;5.30;;;3.90;;
73107;SDS011;61559;50.476;15.588;2022-08-01T02:40:28;4.10;;;3.40;;
73107;SDS011;61559;50.476;15.588;2022-08-01T02:43:02;4.10;;;3.60;;
73107;SDS011;61559;50.476;15.588;2022-08-01T02:45:34;3.50;;;3.10;;
73107;SDS011;61559;50.476;15.588;2022-08-01T02:48:09;4.20;;;3.80;;
73107;SDS011;61559;50.476;15.588;2022-08-01T02:50:43;4.00;;;3.60;;
73107;SDS011;61559;50.476;15.588;2022-08-01T02:53:18;5.20;;;3.40;;
73107;SDS011;61559;50.476;15.588;2022-08-01T02:56:11;4.60;;;3.90;;
73107;SDS011;61559;50.476;15.588;2022-08-01T02:58:43;4.10;;;3.70;;
73107;SDS011;61559;50.476;15.588;2022-08-01T03:01:17;3.90;;;3.50;;
73107;SDS011;61559;50.476;15.588;2022-08-01T03:03:52;5.70;;;4.10;;
73107;SDS011;61559;50.476;15.588;2022-08-01T03:06:24;3.70;;;3.40;;
73107;SDS011;61559;50.476;15.588;2022-08-01T03:08:56;4.00;;;3.60;;
73107;SDS011;61559;50.476;15.588;2022-08-01T03:11:29;4.50;;;3.90;;
73107;SDS011;61559;50.476;15.588;2022-08-01T03:14:03;5.00;;;3.50;;
73107;SDS011;61559;50.476;15.588;2022-08-01T03:16:38;4.80;;;3.70;;
73107;SDS011;61559;50.476;15.588;2022-08-01T03:19:11;4.90;;;3.60;;
73107;SDS011;61559;50.476;15.588;2022-08-01T03:21:45;4.10;;;3.70;;
73107;SDS011;61559;50.476;15.588;2022-08-01T03:24:18;4.40;;;3.30;;
73107;SDS011;61559;50.476;15.588;2022-08-01T03:26:50;3.80;;;3.40;;
73107;SDS011;61559;50.476;15.588;2022-08-01T03:29:26;4.60;;;4.20;;
73107;SDS011;61559;50.476;15.588;2022-08-01T03:31:59;3.90;;;3.60;;
73107;SDS011;61559;50.476;15.588;2022-08-01T03:34:31;3.90;;;3.50;;
73107;SDS011;61559;50.476;15.588;2022-08-01T03:37:03;5.40;;;3.20;;
73107;SDS011;61559;50.476;15.588;2022-08-01T03:39:39;3.80;;;3.30;;
73107;SDS011;61559;50.476;15.588;2022-08-01T03:42:16;3.90;;;3.50;;
73107;SDS011;61559;50.476;15.588;2022-08-01T03:44:52;4.40;;;3.60;;
73107;SDS011;61559;50.476;15.588;2022-08-01T03:47:29;3.40;;;2.80;;
73107;SDS011;61559;50.476;15.588;2022-08-01T03:50:11;3.10;;;2.90;;
73107;SDS011;61559;50.476;15.588;2022-08-01T03:52:44;3.90;;;3.60;;
73107;SDS011;61559;50.476;15.588;2022-08-01T03:55:19;5.10;;;3.90;;
73107;SDS011;61559;50.476;15.588;2022-08-01T03:57:51;3.90;;;3.50;;
73107;SDS011;61559;50.476;15.588;2022-08-01T04:00:23;4.60;;;3.70;;
73107;SDS011;61559;50.476;15.588;2022-08-01T04:02:55;4.00;;;3.50;;
73107;SDS011;61559;50.476;15.588;2022-08-01T04:05:26;3.90;;;3.60;;
73107;SDS011;61559;50.476;15.588;2022-08-01T04:07:59;4.30;;;3.80;;
73107;SDS011;61559;50.476;15.588;2022-08-01T04:10:31;4.10;;;3.70;;
73107;SDS011;61559;50.476;15.588;2022-08-01T04:13:03;3.90;;;3.30;;
73107;SDS011;61559;50.476;15.588;2022-08-01T04:15:33;4.40;;;3.40;;
73107;SDS011;61559;50.476;15.588;2022-08-01T04:18:05;3.90;;;3.10;;
73107;SDS011;61559;50.476;15.588;2022-08-01T04:20:36;4.40;;;3.90;;
73107;SDS011;61559;50.476;15.588;2022-08-01T04:23:07;4.30;;;3.90;;
73107;SDS011;61559;50.476;15.588;2022-08-01T04:25:39;5.00;;;3.90;;
73107;SDS011;61559;50.476;15.588;2022-08-01T04:28:13;4.60;;;3.80;;
73107;SDS011;61559;50.476;15.588;2022-08-01T04:30:46;5.60;;;3.10;;
73107;SDS011;61559;50.476;15.588;2022-08-01T04:33:19;4.20;;;3.10;;
73107;SDS011;61559;50.476;15.588;2022-08-01T04:35:52;6.20;;;3.20;;
73107;SDS011;61559;50.476;15.588;2022-08-01T04:38:32;4.40;;;3.80;;
73107;SDS011;61559;50.476;15.588;2022-08-01T04:41:06;4.00;;;3.70;;
73107;SDS011;61559;50.476;15.588;2022-08-01T04:43:39;4.90;;;3.60;;
73107;SDS011;61559;50.476;15.588;2022-08-01T04:46:11;4.30;;;3.00;;
73107;SDS011;61559;50.476;15.588;2022-08-01T04:48:45;3.20;;;2.90;;
73107;SDS011;61559;50.476;15.588;2022-08-01T04:51:17;5.30;;;3.70;;
73107;SDS011;61559;50.476;15.588;2022-08-01T04:53:50;9.30;;;4.10;;
73107;SDS011;61559;50.476;15.588;2022-08-01T04:56:21;4.80;;;3.80;;
73107;SDS011;61559;50.476;15.588;2022-08-01T04:58:52;4.40;;;3.50;;
73107;SDS011;61559;50.476;15.588;2022-08-01T05:01:50;4.00;;;3.40;;
73107;SDS011;61559;50.476;15.588;2022-08-01T05:04:21;3.50;;;3.20;;
73107;SDS011;61559;50.476;15.588;2022-08-01T05:06:52;4.80;;;3.80;;
73107;SDS011;61559;50.476;15.588;2022-08-01T05:09:24;4.00;;;3.70;;
73107;SDS011;61559;50.476;15.588;2022-08-01T05:11:58;5.40;;;4.10;;
73107;SDS011;61559;50.476;15.588;2022-08-01T05:14:30;4.50;;;4.00;;
73107;SDS011;61559;50.476;15.588;2022-08-01T05:17:02;5.80;;;4.40;;
73107;SDS011;61559;50.476;15.588;2022-08-01T05:19:35;5.60;;;4.10;;
73107;SDS011;61559;50.476;15.588;2022-08-01T05:22:07;4.50;;;4.00;;
73107;SDS011;61559;50.476;15.588;2022-08-01T05:24:39;4.90;;;4.40;;
73107;SDS011;61559;50.476;15.588;2022-08-01T05:27:12;4.80;;;4.40;;
73107;SDS011;61559;50.476;15.588;2022-08-01T05:29:43;4.90;;;4.30;;
73107;SDS011;61559;50.476;15.588;2022-08-01T05:32:14;4.50;;;3.90;;
73107;SDS011;61559;50.476;15.588;2022-08-01T05:34:45;5.10;;;4.00;;
73107;SDS011;61559;50.476;15.588;2022-08-01T05:37:16;6.00;;;4.60;;
73107;SDS011;61559;50.476;15.588;2022-08-01T05:39:47;4.20;;;3.80;;
73107;SDS011;61559;50.476;15.588;2022-08-01T05:42:18;4.70;;;3.90;;
73107;SDS011;61559;50.476;15.588;2022-08-01T05:44:49;5.10;;;4.10;;
73107;SDS011;61559;50.476;15.588;2022-08-01T05:47:20;4.70;;;3.90;;
73107;SDS011;61559;50.476;15.588;2022-08-01T05:49:52;4.70;;;4.30;;
73107;SDS011;61559;50.476;15.588;2022-08-01T05:52:22;4.60;;;4.20;;
73107;SDS011;61559;50.476;15.588;2022-08-01T05:54:54;5.10;;;4.50;;
73107;SDS011;61559;50.476;15.588;2022-08-01T05:57:25;4.40;;;4.00;;
73107;SDS011;61559;50.476;15.588;2022-08-01T05:59:56;4.40;;;4.00;;
73107;SDS011;61559;50.476;15.588;2022-08-01T06:02:27;5.70;;;4.40;;
73107;SDS011;61559;50.476;15.588;2022-08-01T06:04:59;5.60;;;4.30;;
73107;SDS011;61559;50.476;15.588;2022-08-01T06:07:30;9.70;;;4.20;;
73107;SDS011;61559;50.476;15.588;2022-08-01T06:10:06;6.30;;;3.50;;
73107;SDS011;61559;50.476;15.588;2022-08-01T06:12:38;5.00;;;4.30;;
73107;SDS011;61559;50.476;15.588;2022-08-01T06:15:09;5.50;;;4.00;;
73107;SDS011;61559;50.476;15.588;2022-08-01T06:17:41;5.00;;;3.80;;
73107;SDS011;61559;50.476;15.588;2022-08-01T06:20:12;4.10;;;3.70;;
73107;SDS011;61559;50.476;15.588;2022-08-01T06:22:43;3.90;;;3.40;;
73107;SDS011;61559;50.476;15.588;2022-08-01T06:25:19;7.10;;;3.80;;
73107;SDS011;61559;50.476;15.588;2022-08-01T06:27:51;3.80;;;3.50;;
73107;SDS011;61559;50.476;15.588;2022-08-01T06:30:22;3.70;;;3.30;;
73107;SDS011;61559;50.476;15.588;2022-08-01T06:32:53;5.00;;;3.80;;
73107;SDS011;61559;50.476;15.588;2022-08-01T06:35:26;5.10;;;3.30;;
73107;SDS011;61559;50.476;15.588;2022-08-01T06:37:58;4.40;;;3.60;;
73107;SDS011;61559;50.476;15.588;2022-08-01T06:40:30;5.10;;;3.50;;
73107;SDS011;61559;50.476;15.588;2022-08-01T06:43:03;5.00;;;3.70;;
73107;SDS011;61559;50.476;15.588;2022-08-01T06:45:34;11.20;;;3.90;;
73107;SDS011;61559;50.476;15.588;2022-08-01T06:48:05;4.60;;;3.70;;
73107;SDS011;61559;50.476;15.588;2022-08-01T06:50:36;4.50;;;3.70;;
73107;SDS011;61559;50.476;15.588;2022-08-01T06:53:07;5.70;;;3.70;;
73107;SDS011;61559;50.476;15.588;2022-08-01T06:55:39;5.30;;;3.70;;
73107;SDS011;61559;50.476;15.588;2022-08-01T06:58:10;4.00;;;3.60;;
73107;SDS011;61559;50.476;15.588;2022-08-01T07:00:41;3.80;;;3.30;;
73107;SDS011;61559;50.476;15.588;2022-08-01T07:03:12;5.10;;;3.90;;
73107;SDS011;61559;50.476;15.588;2022-08-01T07:05:43;4.30;;;3.90;;
73107;SDS011;61559;50.476;15.588;2022-08-01T07:08:14;7.50;;;5.60;;
73107;SDS011;61559;50.476;15.588;2022-08-01T07:10:45;4.40;;;4.00;;
73107;SDS011;61559;50.476;15.588;2022-08-01T07:13:16;4.40;;;3.70;;
73107;SDS011;61559;50.476;15.588;2022-08-01T07:15:49;5.60;;;4.30;;
73107;SDS011;61559;50.476;15.588;2022-08-01T07:18:20;4.10;;;3.70;;
73107;SDS011;61559;50.476;15.588;2022-08-01T07:20:53;5.50;;;4.10;;
73107;SDS011;61559;50.476;15.588;2022-08-01T07:23:24;4.20;;;3.80;;
73107;SDS011;61559;50.476;15.588;2022-08-01T07:26:03;3.90;;;3.60;;
73107;SDS011;61559;50.476;15.588;2022-08-01T07:28:35;3.90;;;3.30;;
73107;SDS011;61559;50.476;15.588;2022-08-01T07:31:11;6.20;;;3.60;;
73107;SDS011;61559;50.476;15.588;2022-08-01T07:33:42;4.70;;;3.50;;
73107;SDS011;61559;50.476;15.588;2022-08-01T07:36:16;5.90;;;3.70;;
73107;SDS011;61559;50.476;15.588;2022-08-01T07:38:48;3.70;;;3.30;;
73107;SDS011;61559;50.476;15.588;2022-08-01T07:41:19;5.10;;;3.10;;
73107;SDS011;61559;50.476;15.588;2022-08-01T07:44:10;3.70;;;3.40;;
73107;SDS011;61559;50.476;15.588;2022-08-01T07:46:42;4.80;;;3.20;;
73107;SDS011;61559;50.476;15.588;2022-08-01T07:49:13;4.50;;;2.90;;
73107;SDS011;61559;50.476;15.588;2022-08-01T07:51:47;3.30;;;3.00;;
73107;SDS011;61559;50.476;15.588;2022-08-01T07:54:34;6.50;;;2.90;;
73107;SDS011;61559;50.476;15.588;2022-08-01T07:57:05;4.20;;;2.90;;
73107;SDS011;61559;50.476;15.588;2022-08-01T07:59:37;4.50;;;2.70;;
73107;SDS011;61559;50.476;15.588;2022-08-01T08:02:08;3.50;;;2.60;;
73107;SDS011;61559;50.476;15.588;2022-08-01T08:04:39;4.40;;;2.60;;
73107;SDS011;61559;50.476;15.588;2022-08-01T08:07:16;3.20;;;2.90;;
73107;SDS011;61559;50.476;15.588;2022-08-01T08:09:47;3.30;;;2.70;;
73107;SDS011;61559;50.476;15.588;2022-08-01T08:12:18;3.10;;;2.60;;
73107;SDS011;61559;50.476;15.588;2022-08-01T08:14:56;4.00;;;2.60;;
73107;SDS011;61559;50.476;15.588;2022-08-01T08:17:28;2.70;;;2.50;;
73107;SDS011;61559;50.476;15.588;2022-08-01T08:20:04;2.50;;;2.30;;
73107;SDS011;61559;50.476;15.588;2022-08-01T08:22:37;2.70;;;2.00;;
73107;SDS011;61559;50.476;15.588;2022-08-01T08:25:08;3.20;;;2.50;;
73107;SDS011;61559;50.476;15.588;2022-08-01T08:27:39;2.10;;;1.60;;
73107;SDS011;61559;50.476;15.588;2022-08-01T08:30:11;2.60;;;1.70;;
73107;SDS011;61559;50.476;15.588;2022-08-01T08:32:42;2.30;;;2.10;;
73107;SDS011;61559;50.476;15.588;2022-08-01T08:35:13;2.00;;;1.80;;
73107;SDS011;61559;50.476;15.588;2022-08-01T08:38:04;2.30;;;1.90;;
73107;SDS011;61559;50.476;15.588;2022-08-01T08:40:38;2.10;;;1.90;;
73107;SDS011;61559;50.476;15.588;2022-08-01T08:43:09;2.10;;;1.80;;
73107;SDS011;61559;50.476;15.588;2022-08-01T08:45:40;3.30;;;1.90;;
73107;SDS011;61559;50.476;15.588;2022-08-01T08:48:27;3.20;;;1.80;;
73107;SDS011;61559;50.476;15.588;2022-08-01T08:50:59;4.50;;;2.50;;
73107;SDS011;61559;50.476;15.588;2022-08-01T08:53:32;3.10;;;2.60;;
73107;SDS011;61559;50.476;15.588;2022-08-01T08:56:05;7.40;;;2.90;;
73107;SDS011;61559;50.476;15.588;2022-08-01T08:58:40;6.60;;;4.80;;
73107;SDS011;61559;50.476;15.588;2022-08-01T09:01:14;3.40;;;3.00;;
73107;SDS011;61559;50.476;15.588;2022-08-01T09:03:49;3.50;;;3.20;;
73107;SDS011;61559;50.476;15.588;2022-08-01T09:06:20;4.40;;;2.80;;
73107;SDS011;61559;50.476;15.588;2022-08-01T09:08:54;2.90;;;2.70;;
73107;SDS011;61559;50.476;15.588;2022-08-01T09:11:25;3.30;;;2.90;;
73107;SDS011;61559;50.476;15.588;2022-08-01T09:14:04;3.40;;;2.60;;
73107;SDS011;61559;50.476;15.588;2022-08-01T09:16:40;3.60;;;2.70;;
73107;SDS011;61559;50.476;15.588;2022-08-01T09:19:16;3.70;;;3.10;;
73107;SDS011;61559;50.476;15.588;2022-08-01T09:22:08;4.20;;;3.50;;
73107;SDS011;61559;50.476;15.588;2022-08-01T09:24:41;4.20;;;3.30;;
73107;SDS011;61559;50.476;15.588;2022-08-01T09:27:25;2.90;;;2.30;;
73107;SDS011;61559;50.476;15.588;2022-08-01T09:30:08;3.20;;;2.80;;
73107;SDS011;61559;50.476;15.588;2022-08-01T09:32:55;3.40;;;2.20;;
73107;SDS011;61559;50.476;15.588;2022-08-01T09:35:38;3.40;;;2.30;;
73107;SDS011;61559;50.476;15.588;2022-08-01T09:38:13;3.00;;;2.60;;
73107;SDS011;61559;50.476;15.588;2022-08-01T09:40:46;3.10;;;2.30;;
73107;SDS011;61559;50.476;15.588;2022-08-01T09:43:18;3.60;;;2.00;;
73107;SDS011;61559;50.476;15.588;2022-08-01T09:45:50;2.50;;;2.30;;
73107;SDS011;61559;50.476;15.588;2022-08-01T09:48:25;3.90;;;2.50;;
73107;SDS011;61559;50.476;15.588;2022-08-01T09:50:57;5.70;;;2.60;;
73107;SDS011;61559;50.476;15.588;2022-08-01T09:53:46;2.50;;;2.20;;
73107;SDS011;61559;50.476;15.588;2022-08-01T09:56:21;2.40;;;2.20;;
73107;SDS011;61559;50.476;15.588;2022-08-01T09:58:53;4.00;;;2.10;;
73107;SDS011;61559;50.476;15.588;2022-08-01T10:01:37;3.20;;;2.50;;
73107;SDS011;61559;50.476;15.588;2022-08-01T10:04:13;3.50;;;2.50;;
73107;SDS011;61559;50.476;15.588;2022-08-01T10:06:47;3.40;;;2.10;;
73107;SDS011;61559;50.476;15.588;2022-08-01T10:09:27;3.70;;;2.10;;
73107;SDS011;61559;50.476;15.588;2022-08-01T10:12:08;2.40;;;2.20;;
73107;SDS011;61559;50.476;15.588;2022-08-01T10:14:43;3.80;;;2.50;;
73107;SDS011;61559;50.476;15.588;2022-08-01T10:17:18;2.20;;;2.00;;
73107;SDS011;61559;50.476;15.588;2022-08-01T10:20:13;2.80;;;2.00;;
73107;SDS011;61559;50.476;15.588;2022-08-01T10:22:59;3.00;;;2.10;;
73107;SDS011;61559;50.476;15.588;2022-08-01T10:25:35;3.20;;;2.20;;
73107;SDS011;61559;50.476;15.588;2022-08-01T10:28:17;2.00;;;1.90;;
73107;SDS011;61559;50.476;15.588;2022-08-01T10:30:51;2.60;;;1.80;;
73107;SDS011;61559;50.476;15.588;2022-08-01T10:33:23;1.80;;;1.60;;
73107;SDS011;61559;50.476;15.588;2022-08-01T10:36:15;2.30;;;1.70;;
73107;SDS011;61559;50.476;15.588;2022-08-01T10:38:49;2.40;;;1.80;;
73107;SDS011;61559;50.476;15.588;2022-08-01T10:41:21;1.90;;;1.80;;
73107;SDS011;61559;50.476;15.588;2022-08-01T10:43:55;2.30;;;1.70;;
73107;SDS011;61559;50.476;15.588;2022-08-01T10:46:27;3.30;;;1.90;;
73107;SDS011;61559;50.476;15.588;2022-08-01T10:49:01;2.10;;;1.90;;
73107;SDS011;61559;50.476;15.588;2022-08-01T10:51:36;3.60;;;1.80;;
73107;SDS011;61559;50.476;15.588;2022-08-01T10:54:21;2.40;;;2.20;;
73107;SDS011;61559;50.476;15.588;2022-08-01T10:56:55;3.00;;;1.90;;
73107;SDS011;61559;50.476;15.588;2022-08-01T10:59:31;2.60;;;2.10;;
73107;SDS011;61559;50.476;15.588;2022-08-01T11:02:29;2.50;;;2.30;;
73107;SDS011;61559;50.476;15.588;2022-08-01T11:05:04;2.20;;;2.00;;
73107;SDS011;61559;50.476;15.588;2022-08-01T11:07:45;1.70;;;1.60;;
73107;SDS011;61559;50.476;15.588;2022-08-01T11:10:24;2.00;;;1.80;;
73107;SDS011;61559;50.476;15.588;2022-08-01T11:13:00;1.70;;;1.50;;
73107;SDS011;61559;50.476;15.588;2022-08-01T11:15:35;2.20;;;1.60;;
73107;SDS011;61559;50.476;15.588;2022-08-01T11:21:05;1.90;;;1.70;;
73107;SDS011;61559;50.476;15.588;2022-08-01T11:23:56;2.30;;;1.90;;
73107;SDS011;61559;50.476;15.588;2022-08-01T11:26:27;2.30;;;1.80;;
73107;SDS011;61559;50.476;15.588;2022-08-01T11:29:25;2.20;;;2.00;;
73107;SDS011;61559;50.476;15.588;2022-08-01T11:31:56;2.50;;;2.30;;
73107;SDS011;61559;50.476;15.588;2022-08-01T11:34:56;3.40;;;2.70;;
73107;SDS011;61559;50.476;15.588;2022-08-01T11:37:28;3.40;;;2.70;;
73107;SDS011;61559;50.476;15.588;2022-08-01T11:43:15;5.20;;;3.10;;
73107;SDS011;61559;50.476;15.588;2022-08-01T11:45:49;6.10;;;3.40;;
73107;SDS011;61559;50.476;15.588;2022-08-01T11:48:25;3.70;;;3.10;;
73107;SDS011;61559;50.476;15.588;2022-08-01T11:50:57;5.20;;;3.40;;
73107;SDS011;61559;50.476;15.588;2022-08-01T11:53:29;4.90;;;3.30;;
73107;SDS011;61559;50.476;15.588;2022-08-01T11:56:03;3.60;;;3.10;;
73107;SDS011;61559;50.476;15.588;2022-08-01T11:58:34;4.00;;;3.50;;
73107;SDS011;61559;50.476;15.588;2022-08-01T12:01:08;4.00;;;3.40;;
73107;SDS011;61559;50.476;15.588;2022-08-01T12:03:43;4.60;;;3.30;;
73107;SDS011;61559;50.476;15.588;2022-08-01T12:06:27;4.10;;;3.20;;
73107;SDS011;61559;50.476;15.588;2022-08-01T12:11:47;4.20;;;3.20;;
73107;SDS011;61559;50.476;15.588;2022-08-01T12:14:19;3.20;;;2.60;;
73107;SDS011;61559;50.476;15.588;2022-08-01T12:16:53;3.90;;;3.20;;
73107;SDS011;61559;50.476;15.588;2022-08-01T12:19:25;3.20;;;2.90;;
73107;SDS011;61559;50.476;15.588;2022-08-01T12:22:05;3.80;;;3.00;;
73107;SDS011;61559;50.476;15.588;2022-08-01T12:24:41;4.10;;;3.10;;
73107;SDS011;61559;50.476;15.588;2022-08-01T12:27:13;4.10;;;2.90;;
73107;SDS011;61559;50.476;15.588;2022-08-01T12:29:56;3.70;;;2.80;;
73107;SDS011;61559;50.476;15.588;2022-08-01T12:32:30;3.30;;;2.70;;
73107;SDS011;61559;50.476;15.588;2022-08-01T12:35:04;3.10;;;2.90;;
73107;SDS011;61559;50.476;15.588;2022-08-01T12:37:40;3.90;;;3.50;;
73107;SDS011;61559;50.476;15.588;2022-08-01T12:40:14;3.30;;;3.00;;
73107;SDS011;61559;50.476;15.588;2022-08-01T12:42:47;2.40;;;2.20;;
73107;SDS011;61559;50.476;15.588;2022-08-01T12:45:21;2.20;;;2.00;;
73107;SDS011;61559;50.476;15.588;2022-08-01T12:47:56;2.30;;;2.10;;
73107;SDS011;61559;50.476;15.588;2022-08-01T12:50:29;3.40;;;2.90;;
73107;SDS011;61559;50.476;15.588;2022-08-01T12:53:01;1.90;;;1.60;;
73107;SDS011;61559;50.476;15.588;2022-08-01T12:55:41;2.10;;;1.80;;
73107;SDS011;61559;50.476;15.588;2022-08-01T12:58:31;3.30;;;1.90;;
73107;SDS011;61559;50.476;15.588;2022-08-01T13:03:34;6.10;;;3.80;;
73107;SDS011;61559;50.476;15.588;2022-08-01T13:06:10;1.80;;;1.70;;
73107;SDS011;61559;50.476;15.588;2022-08-01T13:08:44;2.30;;;1.80;;
73107;SDS011;61559;50.476;15.588;2022-08-01T13:11:15;2.20;;;2.00;;
73107;SDS011;61559;50.476;15.588;2022-08-01T13:13:50;1.60;;;1.50;;
73107;SDS011;61559;50.476;15.588;2022-08-01T13:16:23;1.70;;;1.60;;
73107;SDS011;61559;50.476;15.588;2022-08-01T13:19:15;1.30;;;1.20;;
73107;SDS011;61559;50.476;15.588;2022-08-01T13:21:56;1.00;;;1.00;;
73107;SDS011;61559;50.476;15.588;2022-08-01T13:24:30;1.20;;;1.10;;
73107;SDS011;61559;50.476;15.588;2022-08-01T13:27:01;8.10;;;5.80;;
73107;SDS011;61559;50.476;15.588;2022-08-01T13:29:34;4.00;;;2.50;;
73107;SDS011;61559;50.476;15.588;2022-08-01T13:32:13;1.70;;;1.30;;
73107;SDS011;61559;50.476;15.588;2022-08-01T13:35:04;2.10;;;1.70;;
73107;SDS011;61559;50.476;15.588;2022-08-01T13:37:37;1.50;;;1.30;;
73107;SDS011;61559;50.476;15.588;2022-08-01T13:40:09;2.60;;;1.80;;
73107;SDS011;61559;50.476;15.588;2022-08-01T13:42:51;1.60;;;1.50;;
73107;SDS011;61559;50.476;15.588;2022-08-01T13:45:24;2.00;;;1.40;;
73107;SDS011;61559;50.476;15.588;2022-08-01T13:47:55;1.50;;;1.40;;
73107;SDS011;61559;50.476;15.588;2022-08-01T13:50:46;1.30;;;1.20;;
73107;SDS011;61559;50.476;15.588;2022-08-01T13:53:37;1.50;;;1.20;;
73107;SDS011;61559;50.476;15.588;2022-08-01T13:56:08;2.00;;;1.20;;
73107;SDS011;61559;50.476;15.588;2022-08-01T13:58:39;1.20;;;1.00;;
73107;SDS011;61559;50.476;15.588;2022-08-01T14:01:11;0.70;;;0.70;;
73107;SDS011;61559;50.476;15.588;2022-08-01T14:03:42;0.80;;;0.80;;
73107;SDS011;61559;50.476;15.588;2022-08-01T14:06:14;0.90;;;0.90;;
73107;SDS011;61559;50.476;15.588;2022-08-01T14:08:46;0.80;;;0.80;;
73107;SDS011;61559;50.476;15.588;2022-08-01T14:11:18;0.80;;;0.80;;
73107;SDS011;61559;50.476;15.588;2022-08-01T14:13:48;0.70;;;0.70;;
73107;SDS011;61559;50.476;15.588;2022-08-01T14:16:20;1.10;;;1.00;;
73107;SDS011;61559;50.476;15.588;2022-08-01T14:18:51;1.30;;;0.70;;
73107;SDS011;61559;50.476;15.588;2022-08-01T14:21:22;0.60;;;0.60;;
73107;SDS011;61559;50.476;15.588;2022-08-01T14:23:53;0.70;;;0.70;;
73107;SDS011;61559;50.476;15.588;2022-08-01T14:26:24;0.70;;;0.70;;
73107;SDS011;61559;50.476;15.588;2022-08-01T14:28:55;1.00;;;0.80;;
73107;SDS011;61559;50.476;15.588;2022-08-01T14:31:26;1.10;;;0.80;;
73107;SDS011;61559;50.476;15.588;2022-08-01T14:34:02;0.80;;;0.60;;
73107;SDS011;61559;50.476;15.588;2022-08-01T14:36:32;0.70;;;0.70;;
73107;SDS011;61559;50.476;15.588;2022-08-01T14:39:05;0.90;;;0.70;;
73107;SDS011;61559;50.476;15.588;2022-08-01T14:44:13;0.90;;;0.80;;
73107;SDS011;61559;50.476;15.588;2022-08-01T14:46:44;1.20;;;0.80;;
73107;SDS011;61559;50.476;15.588;2022-08-01T14:49:25;1.00;;;0.90;;
73107;SDS011;61559;50.476;15.588;2022-08-01T14:51:57;1.00;;;0.90;;
73107;SDS011;61559;50.476;15.588;2022-08-01T14:54:28;0.70;;;0.70;;
73107;SDS011;61559;50.476;15.588;2022-08-01T14:56:59;1.00;;;0.90;;
73107;SDS011;61559;50.476;15.588;2022-08-01T14:59:30;1.10;;;1.00;;
73107;SDS011;61559;50.476;15.588;2022-08-01T15:02:02;1.10;;;0.90;;
73107;SDS011;61559;50.476;15.588;2022-08-01T15:04:34;1.50;;;1.10;;
73107;SDS011;61559;50.476;15.588;2022-08-01T15:07:05;0.70;;;0.70;;
73107;SDS011;61559;50.476;15.588;2022-08-01T15:09:36;3.40;;;0.90;;
73107;SDS011;61559;50.476;15.588;2022-08-01T15:12:08;1.00;;;0.80;;
73107;SDS011;61559;50.476;15.588;2022-08-01T15:14:40;1.30;;;0.90;;
73107;SDS011;61559;50.476;15.588;2022-08-01T15:17:17;1.20;;;0.80;;
73107;SDS011;61559;50.476;15.588;2022-08-01T15:19:51;1.30;;;1.20;;
73107;SDS011;61559;50.476;15.588;2022-08-01T15:22:23;1.20;;;1.10;;
73107;SDS011;61559;50.476;15.588;2022-08-01T15:24:56;1.20;;;1.10;;
73107;SDS011;61559;50.476;15.588;2022-08-01T15:27:28;1.40;;;1.30;;
73107;SDS011;61559;50.476;15.588;2022-08-01T15:29:59;1.20;;;1.10;;
73107;SDS011;61559;50.476;15.588;2022-08-01T15:32:30;1.50;;;1.40;;
73107;SDS011;61559;50.476;15.588;2022-08-01T15:35:01;2.60;;;1.40;;